sensor_id;sensor_type;location;lat;lon;timestamp;P1;durP1;ratioP1;P2;durP2;ratioP2
76380;SDS011;65202;52.520;10.528;2022-12-08T00:01:28;30.50;;;16.88;;
76380;SDS011;65202;52.520;10.528;2022-12-08T00:03:59;27.98;;;15.57;;
76380;SDS011;65202;52.520;10.528;2022-12-08T00:06:36;32.25;;;17.13;;
76380;SDS011;65202;52.520;10.528;2022-12-08T00:09:31;34.03;;;16.90;;
76380;SDS011;65202;52.520;10.528;2022-12-08T00:12:12;29.42;;;17.90;;
76380;SDS011;65202;52.520;10.528;2022-12-08T00:14:43;28.17;;;16.90;;
76380;SDS011;65202;52.520;10.528;2022-12-08T00:17:13;32.75;;;17.80;;
76380;SDS011;65202;52.520;10.528;2022-12-08T00:19:42;34.45;;;18.50;;
76380;SDS011;65202;52.520;10.528;2022-12-08T00:22:10;35.65;;;19.20;;
76380;SDS011;65202;52.520;10.528;2022-12-08T00:24:39;31.60;;;18.73;;
76380;SDS011;65202;52.520;10.528;2022-12-08T00:27:10;32.97;;;19.27;;
76380;SDS011;65202;52.520;10.528;2022-12-08T00:29:42;39.80;;;19.67;;
76380;SDS011;65202;52.520;10.528;2022-12-08T00:32:10;43.00;;;20.77;;
76380;SDS011;65202;52.520;10.528;2022-12-08T00:34:38;34.45;;;21.15;;
76380;SDS011;65202;52.520;10.528;2022-12-08T00:37:05;34.88;;;20.92;;
76380;SDS011;65202;52.520;10.528;2022-12-08T00:39:33;32.97;;;20.38;;
76380;SDS011;65202;52.520;10.528;2022-12-08T00:42:00;38.50;;;22.02;;
76380;SDS011;65202;52.520;10.528;2022-12-08T00:44:40;36.28;;;22.08;;
76380;SDS011;65202;52.520;10.528;2022-12-08T00:47:09;36.20;;;22.27;;
76380;SDS011;65202;52.520;10.528;2022-12-08T00:49:38;34.33;;;22.00;;
76380;SDS011;65202;52.520;10.528;2022-12-08T00:52:06;32.78;;;22.60;;
76380;SDS011;65202;52.520;10.528;2022-12-08T00:54:33;35.30;;;22.63;;
76380;SDS011;65202;52.520;10.528;2022-12-08T00:57:01;36.85;;;23.05;;
76380;SDS011;65202;52.520;10.528;2022-12-08T00:59:28;35.85;;;23.85;;
76380;SDS011;65202;52.520;10.528;2022-12-08T01:01:55;39.25;;;23.30;;
76380;SDS011;65202;52.520;10.528;2022-12-08T01:04:23;40.05;;;23.65;;
76380;SDS011;65202;52.520;10.528;2022-12-08T01:06:50;56.75;;;32.90;;
76380;SDS011;65202;52.520;10.528;2022-12-08T01:09:18;47.55;;;29.15;;
76380;SDS011;65202;52.520;10.528;2022-12-08T01:11:45;48.35;;;26.05;;
76380;SDS011;65202;52.520;10.528;2022-12-08T01:14:13;37.83;;;24.00;;
76380;SDS011;65202;52.520;10.528;2022-12-08T01:16:40;35.90;;;22.83;;
76380;SDS011;65202;52.520;10.528;2022-12-08T01:19:09;37.30;;;23.23;;
76380;SDS011;65202;52.520;10.528;2022-12-08T01:21:39;41.65;;;24.15;;
76380;SDS011;65202;52.520;10.528;2022-12-08T01:24:11;37.05;;;22.85;;
76380;SDS011;65202;52.520;10.528;2022-12-08T01:26:45;37.63;;;23.52;;
76380;SDS011;65202;52.520;10.528;2022-12-08T01:29:14;34.88;;;22.80;;
76380;SDS011;65202;52.520;10.528;2022-12-08T01:31:42;39.13;;;23.17;;
76380;SDS011;65202;52.520;10.528;2022-12-08T01:34:09;36.65;;;23.08;;
76380;SDS011;65202;52.520;10.528;2022-12-08T01:36:38;40.20;;;23.42;;
76380;SDS011;65202;52.520;10.528;2022-12-08T01:39:07;40.10;;;22.45;;
76380;SDS011;65202;52.520;10.528;2022-12-08T01:41:40;37.10;;;23.75;;
76380;SDS011;65202;52.520;10.528;2022-12-08T01:46:37;36.67;;;22.20;;
76380;SDS011;65202;52.520;10.528;2022-12-08T01:49:08;34.88;;;21.95;;
76380;SDS011;65202;52.520;10.528;2022-12-08T01:54:26;40.72;;;22.35;;
76380;SDS011;65202;52.520;10.528;2022-12-08T01:57:10;36.05;;;20.73;;
76380;SDS011;65202;52.520;10.528;2022-12-08T02:00:07;26.20;;;15.43;;
76380;SDS011;65202;52.520;10.528;2022-12-08T02:02:59;30.75;;;21.63;;
76380;SDS011;65202;52.520;10.528;2022-12-08T02:05:33;37.75;;;20.63;;
76380;SDS011;65202;52.520;10.528;2022-12-08T02:08:05;35.63;;;21.15;;
76380;SDS011;65202;52.520;10.528;2022-12-08T02:10:37;33.72;;;21.05;;
76380;SDS011;65202;52.520;10.528;2022-12-08T02:13:12;36.25;;;21.63;;
76380;SDS011;65202;52.520;10.528;2022-12-08T02:29:57;29.80;;;19.98;;
76380;SDS011;65202;52.520;10.528;2022-12-08T02:38:55;36.30;;;20.80;;
76380;SDS011;65202;52.520;10.528;2022-12-08T02:45:07;40.35;;;20.98;;
76380;SDS011;65202;52.520;10.528;2022-12-08T02:47:40;38.08;;;20.50;;
76380;SDS011;65202;52.520;10.528;2022-12-08T02:50:09;39.70;;;20.48;;
76380;SDS011;65202;52.520;10.528;2022-12-08T02:52:39;34.67;;;20.48;;
76380;SDS011;65202;52.520;10.528;2022-12-08T03:09:57;38.65;;;18.23;;
76380;SDS011;65202;52.520;10.528;2022-12-08T03:12:37;37.55;;;17.60;;
76380;SDS011;65202;52.520;10.528;2022-12-08T03:15:12;37.50;;;17.75;;
76380;SDS011;65202;52.520;10.528;2022-12-08T03:17:48;28.70;;;16.45;;
76380;SDS011;65202;52.520;10.528;2022-12-08T03:20:23;32.78;;;17.30;;
76380;SDS011;65202;52.520;10.528;2022-12-08T03:22:54;31.27;;;17.17;;
76380;SDS011;65202;52.520;10.528;2022-12-08T03:25:26;28.73;;;17.63;;
76380;SDS011;65202;52.520;10.528;2022-12-08T03:27:59;32.65;;;17.83;;
76380;SDS011;65202;52.520;10.528;2022-12-08T03:30:27;37.15;;;17.23;;
76380;SDS011;65202;52.520;10.528;2022-12-08T03:35:57;28.92;;;15.45;;
76380;SDS011;65202;52.520;10.528;2022-12-08T03:38:35;26.95;;;16.02;;
76380;SDS011;65202;52.520;10.528;2022-12-08T03:41:05;29.27;;;16.60;;
76380;SDS011;65202;52.520;10.528;2022-12-08T03:43:50;25.98;;;15.63;;
76380;SDS011;65202;52.520;10.528;2022-12-08T03:46:24;33.47;;;16.20;;
76380;SDS011;65202;52.520;10.528;2022-12-08T03:48:53;28.83;;;15.52;;
76380;SDS011;65202;52.520;10.528;2022-12-08T03:51:21;30.85;;;15.68;;
76380;SDS011;65202;52.520;10.528;2022-12-08T03:53:49;29.20;;;16.63;;
76380;SDS011;65202;52.520;10.528;2022-12-08T03:58:56;26.95;;;15.02;;
76380;SDS011;65202;52.520;10.528;2022-12-08T04:01:24;25.90;;;14.48;;
76380;SDS011;65202;52.520;10.528;2022-12-08T04:03:52;28.95;;;15.18;;
76380;SDS011;65202;52.520;10.528;2022-12-08T04:06:20;28.65;;;15.23;;
76380;SDS011;65202;52.520;10.528;2022-12-08T04:08:48;29.23;;;14.88;;
76380;SDS011;65202;52.520;10.528;2022-12-08T04:11:17;34.78;;;18.75;;
76380;SDS011;65202;52.520;10.528;2022-12-08T04:13:46;34.58;;;19.75;;
76380;SDS011;65202;52.520;10.528;2022-12-08T04:16:18;49.40;;;27.63;;
76380;SDS011;65202;52.520;10.528;2022-12-08T04:18:49;35.22;;;21.90;;
76380;SDS011;65202;52.520;10.528;2022-12-08T04:21:17;36.03;;;19.33;;
76380;SDS011;65202;52.520;10.528;2022-12-08T04:23:44;31.25;;;19.67;;
76380;SDS011;65202;52.520;10.528;2022-12-08T04:26:13;34.45;;;18.20;;
76380;SDS011;65202;52.520;10.528;2022-12-08T04:28:42;27.70;;;16.23;;
76380;SDS011;65202;52.520;10.528;2022-12-08T04:31:10;29.73;;;16.92;;
76380;SDS011;65202;52.520;10.528;2022-12-08T04:33:37;32.28;;;17.40;;
76380;SDS011;65202;52.520;10.528;2022-12-08T04:36:05;31.65;;;16.48;;
76380;SDS011;65202;52.520;10.528;2022-12-08T04:38:34;27.75;;;16.17;;
76380;SDS011;65202;52.520;10.528;2022-12-08T04:41:01;26.65;;;15.73;;
76380;SDS011;65202;52.520;10.528;2022-12-08T04:43:28;31.35;;;16.20;;
76380;SDS011;65202;52.520;10.528;2022-12-08T04:45:56;32.55;;;16.45;;
76380;SDS011;65202;52.520;10.528;2022-12-08T04:48:23;26.98;;;15.63;;
76380;SDS011;65202;52.520;10.528;2022-12-08T04:50:50;33.33;;;15.93;;
76380;SDS011;65202;52.520;10.528;2022-12-08T04:53:18;33.75;;;16.42;;
76380;SDS011;65202;52.520;10.528;2022-12-08T04:55:45;29.02;;;16.02;;
76380;SDS011;65202;52.520;10.528;2022-12-08T04:58:16;28.02;;;15.68;;
76380;SDS011;65202;52.520;10.528;2022-12-08T05:00:46;36.55;;;16.77;;
76380;SDS011;65202;52.520;10.528;2022-12-08T05:03:14;29.20;;;15.50;;
76380;SDS011;65202;52.520;10.528;2022-12-08T05:05:42;31.58;;;16.35;;
76380;SDS011;65202;52.520;10.528;2022-12-08T05:08:10;26.45;;;15.32;;
76380;SDS011;65202;52.520;10.528;2022-12-08T05:10:37;33.38;;;16.23;;
76380;SDS011;65202;52.520;10.528;2022-12-08T05:13:05;32.35;;;15.73;;
76380;SDS011;65202;52.520;10.528;2022-12-08T05:15:32;28.25;;;16.08;;
76380;SDS011;65202;52.520;10.528;2022-12-08T05:17:59;27.70;;;15.48;;
76380;SDS011;65202;52.520;10.528;2022-12-08T05:20:26;109.72;;;53.53;;
76380;SDS011;65202;52.520;10.528;2022-12-08T05:22:54;41.42;;;20.67;;
76380;SDS011;65202;52.520;10.528;2022-12-08T05:25:21;36.63;;;16.05;;
76380;SDS011;65202;52.520;10.528;2022-12-08T05:27:48;33.22;;;17.05;;
76380;SDS011;65202;52.520;10.528;2022-12-08T05:30:16;31.30;;;17.50;;
76380;SDS011;65202;52.520;10.528;2022-12-08T05:32:43;30.15;;;15.85;;
76380;SDS011;65202;52.520;10.528;2022-12-08T05:35:10;26.85;;;15.23;;
76380;SDS011;65202;52.520;10.528;2022-12-08T05:37:37;32.90;;;15.25;;
76380;SDS011;65202;52.520;10.528;2022-12-08T05:40:05;21.48;;;14.07;;
76380;SDS011;65202;52.520;10.528;2022-12-08T05:42:33;24.50;;;14.45;;
76380;SDS011;65202;52.520;10.528;2022-12-08T05:45:00;34.45;;;15.02;;
76380;SDS011;65202;52.520;10.528;2022-12-08T05:47:28;24.67;;;14.50;;
76380;SDS011;65202;52.520;10.528;2022-12-08T05:50:01;25.40;;;14.85;;
76380;SDS011;65202;52.520;10.528;2022-12-08T05:52:30;28.00;;;14.60;;
76380;SDS011;65202;52.520;10.528;2022-12-08T05:54:58;32.78;;;16.08;;
76380;SDS011;65202;52.520;10.528;2022-12-08T05:57:26;29.27;;;16.13;;
76380;SDS011;65202;52.520;10.528;2022-12-08T05:59:53;32.90;;;16.02;;
76380;SDS011;65202;52.520;10.528;2022-12-08T06:02:21;23.20;;;15.27;;
76380;SDS011;65202;52.520;10.528;2022-12-08T06:04:48;32.80;;;16.55;;
76380;SDS011;65202;52.520;10.528;2022-12-08T06:07:15;31.98;;;17.17;;
76380;SDS011;65202;52.520;10.528;2022-12-08T06:09:43;32.85;;;16.88;;
76380;SDS011;65202;52.520;10.528;2022-12-08T06:12:10;30.95;;;17.33;;
76380;SDS011;65202;52.520;10.528;2022-12-08T06:14:38;30.88;;;17.00;;
76380;SDS011;65202;52.520;10.528;2022-12-08T06:17:05;32.53;;;18.80;;
76380;SDS011;65202;52.520;10.528;2022-12-08T06:19:33;34.58;;;18.20;;
76380;SDS011;65202;52.520;10.528;2022-12-08T06:22:00;34.88;;;22.38;;
76380;SDS011;65202;52.520;10.528;2022-12-08T06:24:27;51.72;;;29.75;;
76380;SDS011;65202;52.520;10.528;2022-12-08T06:26:54;39.22;;;23.17;;
76380;SDS011;65202;52.520;10.528;2022-12-08T06:29:22;34.63;;;20.05;;
76380;SDS011;65202;52.520;10.528;2022-12-08T06:31:49;42.92;;;21.30;;
76380;SDS011;65202;52.520;10.528;2022-12-08T06:34:18;36.97;;;20.67;;
76380;SDS011;65202;52.520;10.528;2022-12-08T06:36:45;36.35;;;19.70;;
76380;SDS011;65202;52.520;10.528;2022-12-08T06:39:12;42.20;;;21.85;;
76380;SDS011;65202;52.520;10.528;2022-12-08T06:41:39;39.80;;;21.80;;
76380;SDS011;65202;52.520;10.528;2022-12-08T06:44:35;32.85;;;19.52;;
76380;SDS011;65202;52.520;10.528;2022-12-08T06:47:03;40.22;;;23.33;;
76380;SDS011;65202;52.520;10.528;2022-12-08T06:49:30;39.03;;;21.45;;
76380;SDS011;65202;52.520;10.528;2022-12-08T06:51:58;36.17;;;21.38;;
76380;SDS011;65202;52.520;10.528;2022-12-08T06:54:25;38.45;;;21.38;;
76380;SDS011;65202;52.520;10.528;2022-12-08T06:56:53;34.38;;;20.60;;
76380;SDS011;65202;52.520;10.528;2022-12-08T06:59:20;38.60;;;20.95;;
76380;SDS011;65202;52.520;10.528;2022-12-08T07:01:47;34.55;;;21.38;;
76380;SDS011;65202;52.520;10.528;2022-12-08T07:04:14;35.95;;;21.58;;
76380;SDS011;65202;52.520;10.528;2022-12-08T07:06:42;39.13;;;21.52;;
76380;SDS011;65202;52.520;10.528;2022-12-08T07:09:09;33.90;;;21.50;;
76380;SDS011;65202;52.520;10.528;2022-12-08T07:11:37;35.75;;;22.70;;
76380;SDS011;65202;52.520;10.528;2022-12-08T07:14:05;35.20;;;22.10;;
76380;SDS011;65202;52.520;10.528;2022-12-08T07:16:32;39.95;;;23.27;;
76380;SDS011;65202;52.520;10.528;2022-12-08T07:19:00;40.60;;;23.80;;
76380;SDS011;65202;52.520;10.528;2022-12-08T07:21:28;47.17;;;24.33;;
76380;SDS011;65202;52.520;10.528;2022-12-08T07:23:55;46.38;;;25.65;;
76380;SDS011;65202;52.520;10.528;2022-12-08T07:26:24;38.97;;;25.42;;
76380;SDS011;65202;52.520;10.528;2022-12-08T07:28:52;45.92;;;26.58;;
76380;SDS011;65202;52.520;10.528;2022-12-08T07:31:21;50.50;;;27.85;;
76380;SDS011;65202;52.520;10.528;2022-12-08T07:33:51;57.88;;;28.88;;
76380;SDS011;65202;52.520;10.528;2022-12-08T07:36:19;47.30;;;28.60;;
76380;SDS011;65202;52.520;10.528;2022-12-08T07:38:47;48.10;;;29.35;;
76380;SDS011;65202;52.520;10.528;2022-12-08T07:41:17;50.50;;;29.05;;
76380;SDS011;65202;52.520;10.528;2022-12-08T07:43:49;48.22;;;29.67;;
76380;SDS011;65202;52.520;10.528;2022-12-08T07:46:19;50.60;;;30.65;;
76380;SDS011;65202;52.520;10.528;2022-12-08T07:48:50;52.03;;;30.48;;
76380;SDS011;65202;52.520;10.528;2022-12-08T07:51:20;53.88;;;30.88;;
76380;SDS011;65202;52.520;10.528;2022-12-08T07:53:48;57.10;;;30.67;;
76380;SDS011;65202;52.520;10.528;2022-12-08T07:56:20;60.20;;;31.17;;
76380;SDS011;65202;52.520;10.528;2022-12-08T07:58:49;51.05;;;30.75;;
76380;SDS011;65202;52.520;10.528;2022-12-08T08:01:17;56.15;;;31.67;;
76380;SDS011;65202;52.520;10.528;2022-12-08T08:03:56;48.70;;;30.48;;
76380;SDS011;65202;52.520;10.528;2022-12-08T08:06:27;52.92;;;30.38;;
76380;SDS011;65202;52.520;10.528;2022-12-08T08:08:54;52.95;;;29.52;;
76380;SDS011;65202;52.520;10.528;2022-12-08T08:11:21;52.50;;;31.42;;
76380;SDS011;65202;52.520;10.528;2022-12-08T08:13:49;50.15;;;29.38;;
76380;SDS011;65202;52.520;10.528;2022-12-08T08:16:18;50.30;;;28.40;;
76380;SDS011;65202;52.520;10.528;2022-12-08T08:18:46;48.95;;;27.30;;
76380;SDS011;65202;52.520;10.528;2022-12-08T08:21:16;43.40;;;26.77;;
76380;SDS011;65202;52.520;10.528;2022-12-08T08:24:04;43.05;;;25.00;;
76380;SDS011;65202;52.520;10.528;2022-12-08T08:26:32;46.13;;;26.15;;
76380;SDS011;65202;52.520;10.528;2022-12-08T08:28:59;41.00;;;23.73;;
76380;SDS011;65202;52.520;10.528;2022-12-08T08:31:27;43.88;;;24.90;;
76380;SDS011;65202;52.520;10.528;2022-12-08T08:33:55;40.25;;;23.75;;
76380;SDS011;65202;52.520;10.528;2022-12-08T08:36:23;44.92;;;25.35;;
76380;SDS011;65202;52.520;10.528;2022-12-08T08:38:50;43.60;;;26.00;;
76380;SDS011;65202;52.520;10.528;2022-12-08T08:41:18;50.42;;;27.27;;
76380;SDS011;65202;52.520;10.528;2022-12-08T08:43:45;42.85;;;24.27;;
76380;SDS011;65202;52.520;10.528;2022-12-08T08:46:12;41.53;;;22.92;;
76380;SDS011;65202;52.520;10.528;2022-12-08T08:48:39;38.75;;;22.27;;
76380;SDS011;65202;52.520;10.528;2022-12-08T08:51:07;33.35;;;20.50;;
76380;SDS011;65202;52.520;10.528;2022-12-08T08:53:37;33.42;;;19.13;;
76380;SDS011;65202;52.520;10.528;2022-12-08T08:56:11;32.45;;;18.45;;
76380;SDS011;65202;52.520;10.528;2022-12-08T08:58:41;28.80;;;18.20;;
76380;SDS011;65202;52.520;10.528;2022-12-08T09:01:08;30.33;;;17.60;;
76380;SDS011;65202;52.520;10.528;2022-12-08T09:03:46;29.85;;;17.90;;
76380;SDS011;65202;52.520;10.528;2022-12-08T09:06:15;30.00;;;17.95;;
76380;SDS011;65202;52.520;10.528;2022-12-08T09:08:44;32.15;;;18.13;;
76380;SDS011;65202;52.520;10.528;2022-12-08T09:11:13;31.90;;;17.67;;
76380;SDS011;65202;52.520;10.528;2022-12-08T09:13:40;28.70;;;17.73;;
76380;SDS011;65202;52.520;10.528;2022-12-08T09:16:08;26.67;;;16.17;;
76380;SDS011;65202;52.520;10.528;2022-12-08T09:18:37;31.13;;;17.02;;
76380;SDS011;65202;52.520;10.528;2022-12-08T09:21:12;31.48;;;17.95;;
76380;SDS011;65202;52.520;10.528;2022-12-08T09:23:42;36.60;;;18.27;;
76380;SDS011;65202;52.520;10.528;2022-12-08T09:26:09;29.52;;;18.35;;
76380;SDS011;65202;52.520;10.528;2022-12-08T09:28:37;31.35;;;18.42;;
76380;SDS011;65202;52.520;10.528;2022-12-08T09:31:04;38.78;;;22.63;;
76380;SDS011;65202;52.520;10.528;2022-12-08T09:33:32;38.55;;;21.60;;
76380;SDS011;65202;52.520;10.528;2022-12-08T09:36:02;30.35;;;18.52;;
76380;SDS011;65202;52.520;10.528;2022-12-08T09:38:30;28.48;;;18.73;;
76380;SDS011;65202;52.520;10.528;2022-12-08T09:40:58;29.10;;;17.83;;
76380;SDS011;65202;52.520;10.528;2022-12-08T09:46:06;29.25;;;18.23;;
76380;SDS011;65202;52.520;10.528;2022-12-08T09:48:38;26.73;;;17.73;;
76380;SDS011;65202;52.520;10.528;2022-12-08T09:51:13;28.52;;;18.88;;
76380;SDS011;65202;52.520;10.528;2022-12-08T09:53:43;29.25;;;18.42;;
76380;SDS011;65202;52.520;10.528;2022-12-08T09:56:26;31.08;;;18.33;;
76380;SDS011;65202;52.520;10.528;2022-12-08T09:58:59;29.25;;;18.80;;
76380;SDS011;65202;52.520;10.528;2022-12-08T10:04:19;29.70;;;18.35;;
76380;SDS011;65202;52.520;10.528;2022-12-08T10:12:57;29.55;;;18.98;;
76380;SDS011;65202;52.520;10.528;2022-12-08T10:19:19;33.65;;;19.73;;
76380;SDS011;65202;52.520;10.528;2022-12-08T10:21:50;41.50;;;21.92;;
76380;SDS011;65202;52.520;10.528;2022-12-08T10:24:35;43.75;;;22.38;;
76380;SDS011;65202;52.520;10.528;2022-12-08T10:27:09;42.88;;;22.67;;
76380;SDS011;65202;52.520;10.528;2022-12-08T10:29:38;43.92;;;22.33;;
76380;SDS011;65202;52.520;10.528;2022-12-08T10:32:15;40.47;;;21.23;;
76380;SDS011;65202;52.520;10.528;2022-12-08T10:35:00;41.33;;;22.88;;
76380;SDS011;65202;52.520;10.528;2022-12-08T10:37:37;40.55;;;22.10;;
76380;SDS011;65202;52.520;10.528;2022-12-08T10:42:47;39.03;;;21.75;;
76380;SDS011;65202;52.520;10.528;2022-12-08T10:45:21;35.92;;;21.48;;
76380;SDS011;65202;52.520;10.528;2022-12-08T10:50:47;39.70;;;21.75;;
76380;SDS011;65202;52.520;10.528;2022-12-08T10:53:28;34.72;;;21.45;;
76380;SDS011;65202;52.520;10.528;2022-12-08T10:58:32;32.85;;;19.35;;
76380;SDS011;65202;52.520;10.528;2022-12-08T11:03:51;31.75;;;19.80;;
76380;SDS011;65202;52.520;10.528;2022-12-08T11:09:06;30.67;;;19.13;;
76380;SDS011;65202;52.520;10.528;2022-12-08T11:11:57;26.20;;;18.45;;
76380;SDS011;65202;52.520;10.528;2022-12-08T11:17:11;32.05;;;19.65;;
76380;SDS011;65202;52.520;10.528;2022-12-08T11:19:44;24.80;;;18.23;;
76380;SDS011;65202;52.520;10.528;2022-12-08T11:22:25;28.15;;;18.33;;
76380;SDS011;65202;52.520;10.528;2022-12-08T11:25:08;24.88;;;18.00;;
76380;SDS011;65202;52.520;10.528;2022-12-08T11:27:43;26.23;;;18.58;;
76380;SDS011;65202;52.520;10.528;2022-12-08T11:30:18;23.77;;;17.55;;
76380;SDS011;65202;52.520;10.528;2022-12-08T11:32:49;24.67;;;18.00;;
76380;SDS011;65202;52.520;10.528;2022-12-08T11:35:38;23.00;;;16.05;;
76380;SDS011;65202;52.520;10.528;2022-12-08T11:38:17;23.52;;;16.98;;
76380;SDS011;65202;52.520;10.528;2022-12-08T11:41:10;26.30;;;19.58;;
76380;SDS011;65202;52.520;10.528;2022-12-08T11:43:48;23.73;;;17.23;;
76380;SDS011;65202;52.520;10.528;2022-12-08T11:46:31;20.67;;;15.48;;
76380;SDS011;65202;52.520;10.528;2022-12-08T11:49:10;21.80;;;15.98;;
76380;SDS011;65202;52.520;10.528;2022-12-08T11:51:50;19.92;;;15.38;;
76380;SDS011;65202;52.520;10.528;2022-12-08T11:54:26;20.73;;;14.82;;
76380;SDS011;65202;52.520;10.528;2022-12-08T11:56:58;22.13;;;15.07;;
76380;SDS011;65202;52.520;10.528;2022-12-08T11:59:32;20.10;;;14.30;;
76380;SDS011;65202;52.520;10.528;2022-12-08T12:02:05;19.52;;;15.00;;
76380;SDS011;65202;52.520;10.528;2022-12-08T12:04:41;20.35;;;14.75;;
76380;SDS011;65202;52.520;10.528;2022-12-08T12:07:38;26.23;;;17.92;;
76380;SDS011;65202;52.520;10.528;2022-12-08T12:10:39;19.75;;;14.05;;
76380;SDS011;65202;52.520;10.528;2022-12-08T12:13:46;16.95;;;11.90;;
76380;SDS011;65202;52.520;10.528;2022-12-08T12:16:43;16.75;;;12.32;;
76380;SDS011;65202;52.520;10.528;2022-12-08T12:19:24;16.23;;;12.90;;
76380;SDS011;65202;52.520;10.528;2022-12-08T12:21:56;18.20;;;12.20;;
76380;SDS011;65202;52.520;10.528;2022-12-08T12:24:31;16.65;;;11.77;;
76380;SDS011;65202;52.520;10.528;2022-12-08T12:27:13;18.33;;;12.95;;
76380;SDS011;65202;52.520;10.528;2022-12-08T12:29:55;16.52;;;13.30;;
76380;SDS011;65202;52.520;10.528;2022-12-08T12:32:26;19.65;;;14.60;;
76380;SDS011;65202;52.520;10.528;2022-12-08T12:35:21;13.95;;;11.20;;
76380;SDS011;65202;52.520;10.528;2022-12-08T12:38:23;17.02;;;10.57;;
76380;SDS011;65202;52.520;10.528;2022-12-08T12:41:20;17.48;;;11.70;;
76380;SDS011;65202;52.520;10.528;2022-12-08T12:44:06;14.52;;;11.20;;
76380;SDS011;65202;52.520;10.528;2022-12-08T12:46:52;16.85;;;11.13;;
76380;SDS011;65202;52.520;10.528;2022-12-08T12:49:48;17.02;;;11.30;;
76380;SDS011;65202;52.520;10.528;2022-12-08T12:55:17;15.73;;;11.02;;
76380;SDS011;65202;52.520;10.528;2022-12-08T12:57:38;16.15;;;10.93;;
76380;SDS011;65202;52.520;10.528;2022-12-08T13:00:18;15.55;;;10.20;;
76380;SDS011;65202;52.520;10.528;2022-12-08T13:02:48;14.30;;;10.32;;
76380;SDS011;65202;52.520;10.528;2022-12-08T13:08:05;13.45;;;9.65;;
76380;SDS011;65202;52.520;10.528;2022-12-08T13:11:04;12.70;;;9.35;;
76380;SDS011;65202;52.520;10.528;2022-12-08T13:13:36;14.13;;;9.38;;
76380;SDS011;65202;52.520;10.528;2022-12-08T13:18:47;12.57;;;8.93;;
76380;SDS011;65202;52.520;10.528;2022-12-08T13:21:18;14.32;;;8.85;;
76380;SDS011;65202;52.520;10.528;2022-12-08T13:23:49;17.80;;;10.93;;
76380;SDS011;65202;52.520;10.528;2022-12-08T13:26:47;13.88;;;9.02;;
76380;SDS011;65202;52.520;10.528;2022-12-08T13:29:31;13.52;;;9.25;;
76380;SDS011;65202;52.520;10.528;2022-12-08T13:32:03;11.77;;;8.70;;
76380;SDS011;65202;52.520;10.528;2022-12-08T13:35:29;11.88;;;8.70;;
76380;SDS011;65202;52.520;10.528;2022-12-08T13:37:57;12.93;;;8.77;;
76380;SDS011;65202;52.520;10.528;2022-12-08T13:40:27;15.15;;;10.50;;
76380;SDS011;65202;52.520;10.528;2022-12-08T13:45:45;14.38;;;10.40;;
76380;SDS011;65202;52.520;10.528;2022-12-08T13:48:45;14.48;;;9.68;;
76380;SDS011;65202;52.520;10.528;2022-12-08T13:51:42;18.88;;;10.60;;
76380;SDS011;65202;52.520;10.528;2022-12-08T13:54:35;11.88;;;9.38;;
76380;SDS011;65202;52.520;10.528;2022-12-08T13:57:36;10.82;;;8.73;;
76380;SDS011;65202;52.520;10.528;2022-12-08T14:00:11;14.82;;;9.63;;
76380;SDS011;65202;52.520;10.528;2022-12-08T14:02:47;14.25;;;9.57;;
76380;SDS011;65202;52.520;10.528;2022-12-08T14:05:19;12.73;;;9.52;;
76380;SDS011;65202;52.520;10.528;2022-12-08T14:08:28;19.13;;;10.50;;
76380;SDS011;65202;52.520;10.528;2022-12-08T14:11:23;17.00;;;9.68;;
76380;SDS011;65202;52.520;10.528;2022-12-08T14:17:13;19.30;;;10.75;;
76380;SDS011;65202;52.520;10.528;2022-12-08T14:22:46;15.35;;;9.90;;
76380;SDS011;65202;52.520;10.528;2022-12-08T14:25:16;14.85;;;10.32;;
76380;SDS011;65202;52.520;10.528;2022-12-08T14:27:46;14.43;;;10.32;;
76380;SDS011;65202;52.520;10.528;2022-12-08T14:30:17;14.98;;;10.27;;
76380;SDS011;65202;52.520;10.528;2022-12-08T14:32:55;14.80;;;10.57;;
76380;SDS011;65202;52.520;10.528;2022-12-08T14:37:58;15.50;;;11.30;;
76380;SDS011;65202;52.520;10.528;2022-12-08T14:48:22;19.63;;;13.50;;
76380;SDS011;65202;52.520;10.528;2022-12-08T14:51:15;18.77;;;12.77;;
76380;SDS011;65202;52.520;10.528;2022-12-08T14:56:35;17.27;;;10.98;;
76380;SDS011;65202;52.520;10.528;2022-12-08T15:01:54;15.45;;;11.63;;
76380;SDS011;65202;52.520;10.528;2022-12-08T15:04:37;18.60;;;11.35;;
76380;SDS011;65202;52.520;10.528;2022-12-08T15:09:43;19.23;;;11.45;;
76380;SDS011;65202;52.520;10.528;2022-12-08T15:12:21;16.27;;;10.90;;
76380;SDS011;65202;52.520;10.528;2022-12-08T15:14:58;12.63;;;10.10;;
76380;SDS011;65202;52.520;10.528;2022-12-08T15:23:31;14.77;;;10.43;;
76380;SDS011;65202;52.520;10.528;2022-12-08T15:26:17;21.20;;;10.60;;
76380;SDS011;65202;52.520;10.528;2022-12-08T15:28:51;19.38;;;11.10;;
76380;SDS011;65202;52.520;10.528;2022-12-08T15:31:19;16.40;;;11.48;;
76380;SDS011;65202;52.520;10.528;2022-12-08T15:33:47;17.25;;;12.73;;
76380;SDS011;65202;52.520;10.528;2022-12-08T15:36:14;21.60;;;13.13;;
76380;SDS011;65202;52.520;10.528;2022-12-08T15:38:42;20.85;;;12.80;;
76380;SDS011;65202;52.520;10.528;2022-12-08T15:41:09;18.98;;;13.13;;
76380;SDS011;65202;52.520;10.528;2022-12-08T15:43:41;22.52;;;13.35;;
76380;SDS011;65202;52.520;10.528;2022-12-08T15:46:08;19.38;;;11.27;;
76380;SDS011;65202;52.520;10.528;2022-12-08T15:48:36;18.80;;;11.43;;
76380;SDS011;65202;52.520;10.528;2022-12-08T15:51:03;16.23;;;11.00;;
76380;SDS011;65202;52.520;10.528;2022-12-08T15:53:31;16.25;;;11.60;;
76380;SDS011;65202;52.520;10.528;2022-12-08T15:55:58;18.65;;;12.18;;
76380;SDS011;65202;52.520;10.528;2022-12-08T15:58:52;21.15;;;12.30;;
76380;SDS011;65202;52.520;10.528;2022-12-08T16:01:21;18.17;;;11.52;;
76380;SDS011;65202;52.520;10.528;2022-12-08T16:03:50;17.45;;;12.35;;
76380;SDS011;65202;52.520;10.528;2022-12-08T16:06:38;20.70;;;12.20;;
76380;SDS011;65202;52.520;10.528;2022-12-08T16:09:30;23.75;;;11.93;;
76380;SDS011;65202;52.520;10.528;2022-12-08T16:12:03;23.10;;;13.18;;
76380;SDS011;65202;52.520;10.528;2022-12-08T16:14:51;27.73;;;17.60;;
76380;SDS011;65202;52.520;10.528;2022-12-08T16:17:38;27.83;;;16.98;;
76380;SDS011;65202;52.520;10.528;2022-12-08T16:20:11;36.47;;;23.48;;
76380;SDS011;65202;52.520;10.528;2022-12-08T16:22:43;50.75;;;36.00;;
76380;SDS011;65202;52.520;10.528;2022-12-08T16:25:25;45.83;;;32.70;;
76380;SDS011;65202;52.520;10.528;2022-12-08T16:28:12;48.03;;;34.88;;
76380;SDS011;65202;52.520;10.528;2022-12-08T16:30:59;35.85;;;25.02;;
76380;SDS011;65202;52.520;10.528;2022-12-08T16:33:26;28.75;;;22.25;;
76380;SDS011;65202;52.520;10.528;2022-12-08T16:35:54;29.50;;;21.67;;
76380;SDS011;65202;52.520;10.528;2022-12-08T16:38:21;33.88;;;20.73;;
76380;SDS011;65202;52.520;10.528;2022-12-08T16:40:48;21.70;;;14.82;;
76380;SDS011;65202;52.520;10.528;2022-12-08T16:43:41;21.70;;;13.50;;
76380;SDS011;65202;52.520;10.528;2022-12-08T16:46:15;19.63;;;12.15;;